Time;durP1;ratioP1;P1;durP2;ratioP2;P2;SDS_P1;SDS_P2;PMS_P1;PMS_P2;Temp;Humidity;BMP_temperature;BMP_pressure;BME280_temperature;BME280_humidity;BME280_pressure;Samples;Min_cycle;Max_cycle;Signal;HPM_P1;HPM_P2
2023/08/01 00:02:00;;;;;;;5.25;1.90;;;;;;;;;;5129320;27;20042;-57
2023/08/01 00:04:25;;;;;;;5.27;1.83;;;;;;;;;;5132264;27;20023;-58
2023/08/01 00:06:50;;;;;;;4.80;2.20;;;;;;;;;;5127088;27;20031;-58
2023/08/01 00:09:15;;;;;;;5.33;2.20;;;;;;;;;;5124263;27;20552;-58
2023/08/01 00:11:41;;;;;;;5.77;2.10;;;;;;;;;;5129061;27;20026;-60
2023/08/01 00:14:06;;;;;;;5.73;2.00;;;;;;;;;;5123224;27;20505;-59
2023/08/01 00:16:32;;;;;;;6.40;2.33;;;;;;;;;;5126235;27;20030;-59
2023/08/01 00:18:57;;;;;;;5.28;2.10;;;;;;;;;;5119415;27;20118;-58
2023/08/01 00:21:22;;;;;;;6.40;2.43;;;;;;;;;;5125099;27;20106;-58
2023/08/01 00:23:47;;;;;;;5.80;2.10;;;;;;;;;;5131787;27;20051;-59
2023/08/01 00:26:12;;;;;;;5.55;2.00;;;;;;;;;;5123609;27;20517;-57
2023/08/01 00:28:38;;;;;;;5.60;2.23;;;;;;;;;;5117716;27;20106;-59
2023/08/01 00:31:03;;;;;;;5.77;2.03;;;;;;;;;;5115041;27;20027;-59
2023/08/01 00:33:28;;;;;;;5.57;2.10;;;;;;;;;;5113230;27;20045;-57
2023/08/01 00:35:54;;;;;;;5.32;2.00;;;;;;;;;;5116246;27;20016;-60
2023/08/01 00:38:19;;;;;;;5.82;2.10;;;;;;;;;;5111565;27;20036;-57
2023/08/01 00:40:44;;;;;;;6.13;2.35;;;;;;;;;;5125951;27;20011;-58
2023/08/01 00:43:09;;;;;;;5.67;1.87;;;;;;;;;;5111417;27;20042;-57
2023/08/01 00:45:34;;;;;;;6.17;2.10;;;;;;;;;;5111664;28;20008;-58
2023/08/01 00:47:59;;;;;;;5.97;2.10;;;;;;;;;;5115298;27;20050;-60
2023/08/01 00:50:25;;;;;;;5.60;2.10;;;;;;;;;;5118969;27;20507;-58
2023/08/01 00:52:51;;;;;;;5.50;1.90;;;;;;;;;;5114103;27;20038;-60
2023/08/01 00:55:17;;;;;;;5.35;1.80;;;;;;;;;;5110044;27;20022;-58
2023/08/01 00:57:42;;;;;;;5.00;1.88;;;;;;;;;;5117363;27;20027;-59
2023/08/01 01:00:08;;;;;;;4.97;2.00;;;;;;;;;;5116277;27;20016;-58
2023/08/01 01:02:33;;;;;;;4.93;2.08;;;;;;;;;;5116382;27;20015;-59
2023/08/01 01:04:58;;;;;;;5.55;1.83;;;;;;;;;;5117604;27;20035;-59
2023/08/01 01:07:24;;;;;;;6.77;2.10;;;;;;;;;;5111225;27;20375;-58
2023/08/01 01:09:50;;;;;;;4.75;1.90;;;;;;;;;;5115114;27;20024;-58
2023/08/01 01:12:15;;;;;;;6.32;2.30;;;;;;;;;;5111379;27;20020;-59
2023/08/01 01:14:40;;;;;;;6.05;2.17;;;;;;;;;;5116655;27;20021;-59
2023/08/01 01:17:05;;;;;;;4.95;2.08;;;;;;;;;;5112383;27;20451;-60
2023/08/01 01:19:31;;;;;;;5.03;2.05;;;;;;;;;;5112670;27;20026;-58
2023/08/01 01:21:56;;;;;;;7.15;2.08;;;;;;;;;;5111299;27;20011;-60
2023/08/01 01:24:22;;;;;;;5.28;2.05;;;;;;;;;;5108457;27;20533;-59
2023/08/01 01:26:47;;;;;;;5.75;2.25;;;;;;;;;;5109891;27;20023;-58
2023/08/01 01:29:13;;;;;;;5.13;2.15;;;;;;;;;;5118441;27;20011;-58
2023/08/01 01:31:38;;;;;;;6.23;2.10;;;;;;;;;;5127493;27;20015;-58
2023/08/01 01:34:04;;;;;;;5.22;1.95;;;;;;;;;;5114524;27;20273;-58
2023/08/01 01:36:29;;;;;;;5.20;2.28;;;;;;;;;;5115282;27;20016;-58
2023/08/01 01:38:54;;;;;;;5.47;2.00;;;;;;;;;;5129900;27;20483;-58
2023/08/01 01:41:19;;;;;;;5.00;2.20;;;;;;;;;;5125167;27;20023;-56
2023/08/01 01:43:44;;;;;;;6.47;2.37;;;;;;;;;;5112853;28;20804;-60
2023/08/01 01:46:10;;;;;;;5.60;2.17;;;;;;;;;;5114352;27;20030;-58
2023/08/01 01:48:35;;;;;;;5.60;2.30;;;;;;;;;;5120874;27;20049;-58
2023/08/01 01:51:00;;;;;;;5.10;2.10;;;;;;;;;;5124138;27;20386;-57
2023/08/01 01:53:25;;;;;;;5.87;2.30;;;;;;;;;;5128228;27;20031;-60
2023/08/01 01:55:50;;;;;;;5.27;2.27;;;;;;;;;;5125782;27;20020;-59
2023/08/01 01:58:16;;;;;;;5.20;2.00;;;;;;;;;;5127009;28;20079;-59
2023/08/01 02:00:41;;;;;;;6.73;1.97;;;;;;;;;;5127737;27;20042;-59
2023/08/01 02:03:10;;;;;;;6.65;2.42;;;;;;;;;;5127585;27;20075;-60
2023/08/01 02:05:35;;;;;;;4.55;1.90;;;;;;;;;;5115401;27;20122;-59
2023/08/01 02:08:00;;;;;;;6.90;2.20;;;;;;;;;;5129511;27;20531;-58
2023/08/01 02:10:25;;;;;;;5.60;2.37;;;;;;;;;;5128667;27;20030;-60
2023/08/01 02:12:50;;;;;;;5.97;2.30;;;;;;;;;;5129591;27;20019;-59
2023/08/01 02:15:16;;;;;;;5.63;2.40;;;;;;;;;;5129262;27;20022;-59
2023/08/01 02:17:41;;;;;;;4.75;2.10;;;;;;;;;;5125501;27;20032;-59
2023/08/01 02:20:06;;;;;;;6.30;2.53;;;;;;;;;;5126067;27;20019;-60
2023/08/01 02:22:32;;;;;;;5.13;2.10;;;;;;;;;;5132685;27;20065;-59
2023/08/01 02:24:57;;;;;;;5.25;1.98;;;;;;;;;;5125573;27;20015;-59
2023/08/01 02:27:22;;;;;;;6.20;2.40;;;;;;;;;;5125370;27;20095;-59
2023/08/01 02:29:49;;;;;;;6.80;2.20;;;;;;;;;;5126300;27;20026;-59
2023/08/01 02:32:14;;;;;;;6.10;2.00;;;;;;;;;;5127246;27;20538;-59
2023/08/01 02:34:40;;;;;;;6.90;2.45;;;;;;;;;;5135420;27;20011;-59
2023/08/01 02:37:05;;;;;;;7.43;2.63;;;;;;;;;;5127280;27;20024;-58
2023/08/01 02:39:30;;;;;;;5.28;2.35;;;;;;;;;;5124207;27;20027;-59
2023/08/01 02:41:55;;;;;;;5.60;2.00;;;;;;;;;;5120648;27;20027;-59
2023/08/01 02:44:20;;;;;;;6.50;2.40;;;;;;;;;;5138303;27;20046;-59
2023/08/01 02:46:46;;;;;;;5.47;2.33;;;;;;;;;;5124659;27;20035;-59
2023/08/01 02:49:11;;;;;;;6.45;2.60;;;;;;;;;;5132272;27;20091;-59
2023/08/01 02:51:36;;;;;;;5.73;2.30;;;;;;;;;;5124917;27;20028;-59
2023/08/01 02:54:01;;;;;;;6.40;2.20;;;;;;;;;;5126508;27;20008;-59
2023/08/01 02:56:27;;;;;;;6.10;2.00;;;;;;;;;;5123867;27;20019;-60
2023/08/01 02:58:52;;;;;;;;;;;;;;;;;;5125822;27;20027;-59
2023/08/01 03:01:18;;;;;;;5.75;2.40;;;;;;;;;;5127719;27;19930;-60
2023/08/01 03:03:43;;;;;;;6.03;2.40;;;;;;;;;;5128932;27;20046;-59
2023/08/01 03:06:08;;;;;;;6.27;2.50;;;;;;;;;;5129922;27;20019;-60
2023/08/01 03:08:33;;;;;;;6.85;2.42;;;;;;;;;;5127429;27;20992;-59
2023/08/01 03:10:59;;;;;;;6.63;2.65;;;;;;;;;;5124239;27;20066;-57
2023/08/01 03:13:24;;;;;;;5.83;2.33;;;;;;;;;;5127072;27;20022;-59
2023/08/01 03:15:49;;;;;;;7.23;2.40;;;;;;;;;;5126616;27;20015;-61
2023/08/01 03:18:14;;;;;;;5.35;2.10;;;;;;;;;;5128392;27;20035;-60
2023/08/01 03:20:39;;;;;;;6.07;2.37;;;;;;;;;;5125650;27;20023;-58
2023/08/01 03:23:05;;;;;;;6.00;2.50;;;;;;;;;;5123469;27;20079;-59
2023/08/01 03:25:30;;;;;;;6.43;2.70;;;;;;;;;;5124769;27;20020;-57
2023/08/01 03:27:56;;;;;;;5.60;2.30;;;;;;;;;;5133967;27;20382;-59
2023/08/01 03:30:21;;;;;;;5.40;2.10;;;;;;;;;;5129130;27;20474;-59
2023/08/01 03:32:46;;;;;;;6.35;2.38;;;;;;;;;;5131909;27;20023;-59
2023/08/01 03:35:13;;;;;;;6.07;2.33;;;;;;;;;;5128899;27;20483;-59
2023/08/01 03:37:38;;;;;;;6.88;2.53;;;;;;;;;;5126702;27;20039;-58
2023/08/01 03:40:04;;;;;;;5.88;2.35;;;;;;;;;;5130033;27;20100;-59
2023/08/01 03:42:29;;;;;;;5.88;2.30;;;;;;;;;;5121398;27;20034;-59
2023/08/01 03:44:54;;;;;;;7.40;3.10;;;;;;;;;;5124682;27;20026;-58
2023/08/01 03:47:19;;;;;;;6.00;3.00;;;;;;;;;;5126137;27;20016;-59
2023/08/01 03:49:44;;;;;;;6.00;2.70;;;;;;;;;;5127432;27;20023;-60
2023/08/01 03:52:10;;;;;;;5.57;2.55;;;;;;;;;;5121439;27;20443;-58
2023/08/01 03:54:35;;;;;;;6.93;3.10;;;;;;;;;;5122789;27;20015;-59
2023/08/01 03:57:00;;;;;;;6.17;2.70;;;;;;;;;;5134474;27;20025;-59
2023/08/01 03:59:26;;;;;;;6.93;2.80;;;;;;;;;;5128116;27;20038;-58
2023/08/01 04:01:51;;;;;;;7.03;2.80;;;;;;;;;;5123857;27;20022;-58
2023/08/01 04:04:16;;;;;;;6.60;3.20;;;;;;;;;;5123865;27;20027;-58
2023/08/01 04:06:42;;;;;;;6.80;3.30;;;;;;;;;;5132684;27;20069;-59
2023/08/01 04:09:07;;;;;;;7.30;3.43;;;;;;;;;;5126327;27;20476;-59
2023/08/01 04:11:32;;;;;;;7.45;3.40;;;;;;;;;;5123853;27;20020;-60
2023/08/01 04:13:57;;;;;;;7.37;3.93;;;;;;;;;;5134320;27;20133;-59
2023/08/01 04:16:22;;;;;;;7.90;3.77;;;;;;;;;;5123349;27;20051;-59
2023/08/01 04:18:47;;;;;;;6.80;3.33;;;;;;;;;;5118550;27;20034;-59
2023/08/01 04:21:14;;;;;;;9.13;4.07;;;;;;;;;;5115120;27;20024;-58
2023/08/01 04:23:39;;;;;;;7.45;3.80;;;;;;;;;;5115947;27;20023;-59
2023/08/01 04:26:06;;;;;;;6.83;4.27;;;;;;;;;;5124636;27;20011;-59
2023/08/01 04:28:31;;;;;;;6.60;4.05;;;;;;;;;;5127808;27;20360;-59
2023/08/01 04:30:56;;;;;;;7.47;4.50;;;;;;;;;;5123015;27;20073;-58
2023/08/01 04:33:21;;;;;;;7.25;4.30;;;;;;;;;;5109563;27;20453;-59
2023/08/01 04:35:48;;;;;;;7.75;4.10;;;;;;;;;;5128355;27;20053;-60
2023/08/01 04:38:14;;;;;;;6.93;4.20;;;;;;;;;;5121716;27;20098;-59
2023/08/01 04:40:39;;;;;;;7.70;3.90;;;;;;;;;;5116991;27;20094;-58
2023/08/01 04:43:04;;;;;;;6.53;4.10;;;;;;;;;;5127967;27;20090;-59
2023/08/01 04:45:29;;;;;;;6.50;3.90;;;;;;;;;;5129313;27;20023;-59
2023/08/01 04:47:54;;;;;;;7.00;4.03;;;;;;;;;;5128680;27;20145;-59
2023/08/01 04:50:19;;;;;;;6.70;3.88;;;;;;;;;;5126890;27;20015;-60
2023/08/01 04:52:45;;;;;;;7.17;4.40;;;;;;;;;;5127056;27;20497;-61
2023/08/01 04:55:10;;;;;;;7.45;4.13;;;;;;;;;;5127028;27;20386;-58
2023/08/01 04:57:35;;;;;;;6.88;4.55;;;;;;;;;;5120683;27;20031;-58
2023/08/01 05:00:01;;;;;;;7.93;4.20;;;;;;;;;;5125205;27;20030;-58
2023/08/01 05:02:26;;;;;;;6.03;3.97;;;;;;;;;;5107767;27;20027;-60
2023/08/01 05:04:51;;;;;;;6.37;3.83;;;;;;;;;;5114295;27;20035;-60
2023/08/01 05:07:16;;;;;;;8.27;4.88;;;;;;;;;;5114929;27;20032;-58
2023/08/01 05:09:42;;;;;;;8.73;4.83;;;;;;;;;;5110745;27;20023;-57
2023/08/01 05:12:07;;;;;;;7.23;4.60;;;;;;;;;;5117617;27;20030;-59
2023/08/01 05:14:32;;;;;;;6.78;4.30;;;;;;;;;;5111094;27;20023;-60
2023/08/01 05:16:58;;;;;;;6.90;4.20;;;;;;;;;;5107241;27;20083;-59
2023/08/01 05:19:23;;;;;;;6.95;4.45;;;;;;;;;;5110035;27;20081;-60
2023/08/01 05:21:48;;;;;;;7.47;4.50;;;;;;;;;;5112048;27;20022;-58
2023/08/01 05:24:13;;;;;;;6.68;4.32;;;;;;;;;;5124186;27;20011;-59
2023/08/01 05:26:39;;;;;;;7.53;4.27;;;;;;;;;;5119785;27;20048;-57
2023/08/01 05:29:04;;;;;;;6.93;4.55;;;;;;;;;;5114299;27;20489;-57
2023/08/01 05:31:29;;;;;;;8.37;4.57;;;;;;;;;;5114816;27;20060;-59
2023/08/01 05:33:54;;;;;;;6.60;4.00;;;;;;;;;;5119930;27;20026;-58
2023/08/01 05:36:19;;;;;;;9.70;4.50;;;;;;;;;;5111135;27;20088;-58
2023/08/01 05:38:45;;;;;;;6.68;3.95;;;;;;;;;;5114019;27;20036;-59
2023/08/01 05:41:10;;;;;;;7.55;4.53;;;;;;;;;;5121677;27;20521;-60
2023/08/01 05:43:35;;;;;;;8.93;4.53;;;;;;;;;;5123126;27;20084;-60
2023/08/01 05:46:00;;;;;;;7.93;4.43;;;;;;;;;;5117929;27;20030;-60
2023/08/01 05:48:25;;;;;;;6.17;4.03;;;;;;;;;;5137362;27;20023;-59
2023/08/01 05:50:51;;;;;;;6.65;4.15;;;;;;;;;;5115929;27;20106;-59
2023/08/01 05:53:16;;;;;;;7.95;4.45;;;;;;;;;;5111406;27;20023;-59
2023/08/01 05:55:41;;;;;;;7.10;4.37;;;;;;;;;;5124966;27;20034;-60
2023/08/01 05:58:06;;;;;;;6.93;4.40;;;;;;;;;;5121921;27;20151;-57
2023/08/01 06:00:31;;;;;;;7.07;4.93;;;;;;;;;;5122432;27;20095;-59
2023/08/01 06:02:57;;;;;;;7.23;4.90;;;;;;;;;;5108906;27;20148;-58
2023/08/01 06:05:22;;;;;;;7.43;5.37;;;;;;;;;;5110851;27;20026;-58
2023/08/01 06:07:47;;;;;;;7.00;4.93;;;;;;;;;;5129276;27;20022;-58
2023/08/01 06:10:12;;;;;;;6.90;4.90;;;;;;;;;;5119429;27;20497;-58
2023/08/01 06:12:37;;;;;;;6.83;4.63;;;;;;;;;;5135849;27;20367;-60
2023/08/01 06:15:03;;;;;;;6.83;5.03;;;;;;;;;;5118933;27;20038;-59
2023/08/01 06:17:28;;;;;;;7.38;5.20;;;;;;;;;;5122004;27;20027;-58
2023/08/01 06:19:54;;;;;;;8.27;4.93;;;;;;;;;;5116404;27;20840;-59
2023/08/01 06:22:19;;;;;;;8.80;4.95;;;;;;;;;;5127803;27;20019;-59
2023/08/01 06:24:45;;;;;;;6.90;5.03;;;;;;;;;;5124572;27;20030;-60
2023/08/01 06:27:10;;;;;;;6.53;4.50;;;;;;;;;;5112430;27;20040;-58
2023/08/01 06:29:35;;;;;;;5.50;3.60;;;;;;;;;;5117859;27;20047;-58
2023/08/01 06:32:00;;;;;;;6.63;3.90;;;;;;;;;;5116716;27;20395;-58
2023/08/01 06:34:25;;;;;;;5.60;2.92;;;;;;;;;;5114717;27;20027;-58
2023/08/01 06:36:51;;;;;;;4.43;2.23;;;;;;;;;;5112877;27;20111;-59
2023/08/01 06:39:16;;;;;;;3.60;1.42;;;;;;;;;;5119425;27;20074;-58
2023/08/01 06:41:41;;;;;;;2.30;0.90;;;;;;;;;;5126273;27;20031;-58
2023/08/01 06:44:06;;;;;;;3.35;1.00;;;;;;;;;;5122257;27;20391;-58
2023/08/01 06:46:31;;;;;;;2.23;0.80;;;;;;;;;;5123624;27;20072;-57
2023/08/01 06:48:56;;;;;;;2.57;0.87;;;;;;;;;;5114707;27;20130;-58
2023/08/01 06:51:21;;;;;;;5.17;1.20;;;;;;;;;;5126203;27;20015;-59
2023/08/01 06:53:47;;;;;;;2.47;0.80;;;;;;;;;;5131735;27;20141;-60
2023/08/01 06:56:12;;;;;;;2.43;0.90;;;;;;;;;;5131844;27;20038;-57
2023/08/01 06:58:37;;;;;;;2.67;0.80;;;;;;;;;;5128040;27;20465;-60
2023/08/01 07:01:03;;;;;;;2.60;0.90;;;;;;;;;;5129665;27;20110;-58
2023/08/01 07:03:28;;;;;;;3.92;1.10;;;;;;;;;;5122807;27;20031;-58
2023/08/01 07:05:53;;;;;;;3.63;1.00;;;;;;;;;;5128727;27;20023;-59
2023/08/01 07:08:18;;;;;;;2.90;0.90;;;;;;;;;;5130547;27;20023;-56
2023/08/01 07:10:45;;;;;;;2.73;0.90;;;;;;;;;;5120335;27;20029;-58
2023/08/01 07:13:10;;;;;;;2.88;1.00;;;;;;;;;;5119144;27;20027;-59
2023/08/01 07:15:35;;;;;;;2.77;1.00;;;;;;;;;;5125252;27;20090;-57
2023/08/01 07:18:00;;;;;;;2.30;0.73;;;;;;;;;;5127578;27;20019;-58
2023/08/01 07:20:26;;;;;;;4.10;1.00;;;;;;;;;;5127691;27;20019;-59
2023/08/01 07:22:51;;;;;;;2.87;0.90;;;;;;;;;;5131148;27;20072;-59
2023/08/01 07:25:17;;;;;;;4.10;1.05;;;;;;;;;;5107727;27;20460;-59
2023/08/01 07:27:42;;;;;;;2.67;0.80;;;;;;;;;;5118095;27;20098;-59
2023/08/01 07:30:07;;;;;;;2.40;0.90;;;;;;;;;;5120337;27;20076;-58
2023/08/01 07:32:33;;;;;;;2.42;0.90;;;;;;;;;;5127248;27;21029;-58
2023/08/01 07:34:58;;;;;;;2.60;0.90;;;;;;;;;;5121531;27;20057;-59
2023/08/01 07:37:23;;;;;;;3.25;0.88;;;;;;;;;;5120253;27;20027;-59
2023/08/01 07:39:49;;;;;;;2.23;0.80;;;;;;;;;;5127019;27;20083;-62
2023/08/01 07:42:14;;;;;;;2.35;0.90;;;;;;;;;;5116115;27;20044;-58
2023/08/01 07:44:39;;;;;;;7.43;1.13;;;;;;;;;;5123361;27;20753;-60
2023/08/01 07:47:05;;;;;;;2.70;0.90;;;;;;;;;;5125683;27;20058;-61
2023/08/01 07:49:30;;;;;;;2.73;1.00;;;;;;;;;;5125796;27;20015;-60
2023/08/01 07:51:55;;;;;;;2.53;0.83;;;;;;;;;;5125811;27;20435;-59
2023/08/01 07:54:20;;;;;;;2.07;0.70;;;;;;;;;;5134202;27;20045;-60
2023/08/01 07:56:48;;;;;;;4.80;0.97;;;;;;;;;;5126896;27;20447;-61
2023/08/01 07:59:13;;;;;;;2.65;0.88;;;;;;;;;;5128156;27;20023;-61
2023/08/01 08:01:40;;;;;;;3.80;0.90;;;;;;;;;;5123450;27;20806;-61
2023/08/01 08:04:05;;;;;;;1.95;0.80;;;;;;;;;;5118660;27;20028;-59
2023/08/01 08:06:31;;;;;;;2.30;0.90;;;;;;;;;;5119474;27;20038;-60
2023/08/01 08:08:56;;;;;;;2.55;0.80;;;;;;;;;;5129352;27;20052;-61
2023/08/01 08:11:21;;;;;;;2.97;1.00;;;;;;;;;;5133354;27;20518;-59
2023/08/01 08:13:46;;;;;;;2.97;0.93;;;;;;;;;;5132913;27;20022;-59
2023/08/01 08:16:11;;;;;;;2.83;0.88;;;;;;;;;;5132818;27;20015;-59
2023/08/01 08:18:36;;;;;;;3.37;1.00;;;;;;;;;;5132310;27;20174;-60
2023/08/01 08:21:02;;;;;;;2.80;1.00;;;;;;;;;;5133616;27;20012;-60
2023/08/01 08:23:27;;;;;;;3.80;1.00;;;;;;;;;;5132507;27;20015;-61
2023/08/01 08:25:53;;;;;;;2.70;0.73;;;;;;;;;;5133153;27;20656;-61
2023/08/01 08:28:27;;;;;;;3.00;0.80;;;;;;;;;;5130191;27;20031;-61
2023/08/01 08:30:52;;;;;;;3.33;0.70;;;;;;;;;;5132735;27;20023;-60
2023/08/01 08:33:19;;;;;;;1.60;0.60;;;;;;;;;;5131967;27;20075;-60
2023/08/01 08:35:44;;;;;;;2.40;0.65;;;;;;;;;;5130558;27;20099;-61
2023/08/01 08:38:09;;;;;;;3.15;0.80;;;;;;;;;;5131408;27;20506;-60
2023/08/01 08:40:40;;;;;;;1.88;0.70;;;;;;;;;;5131047;27;20021;-61
2023/08/01 08:43:05;;;;;;;3.15;0.70;;;;;;;;;;5144057;27;20094;-61
2023/08/01 08:45:33;;;;;;;1.45;0.50;;;;;;;;;;5153254;27;20467;-60
2023/08/01 08:48:00;;;;;;;1.95;0.68;;;;;;;;;;5153571;27;20022;-60
2023/08/01 08:50:27;;;;;;;1.88;0.50;;;;;;;;;;5131102;27;20022;-59
2023/08/01 08:52:53;;;;;;;2.33;0.70;;;;;;;;;;5126902;27;20023;-60
2023/08/01 08:55:21;;;;;;;1.70;0.52;;;;;;;;;;5147439;27;20490;-60
2023/08/01 08:57:50;;;;;;;2.42;0.60;;;;;;;;;;5143145;27;20395;-60
2023/08/01 09:00:15;;;;;;;2.22;0.70;;;;;;;;;;5113361;27;20015;-59
2023/08/01 09:02:41;;;;;;;2.42;0.60;;;;;;;;;;5132297;27;20022;-59
2023/08/01 09:05:06;;;;;;;1.63;0.60;;;;;;;;;;5130922;27;20015;-59
2023/08/01 09:07:33;;;;;;;6.03;1.00;;;;;;;;;;5118954;27;20768;-59
2023/08/01 09:09:58;;;;;;;2.30;0.68;;;;;;;;;;5132732;27;20057;-59
2023/08/01 09:12:24;;;;;;;1.63;0.70;;;;;;;;;;5125191;27;20103;-59
2023/08/01 09:14:50;;;;;;;3.00;0.80;;;;;;;;;;5103093;27;20395;-60
2023/08/01 09:17:18;;;;;;;2.28;0.70;;;;;;;;;;5130449;27;20012;-59
2023/08/01 09:19:43;;;;;;;2.45;0.57;;;;;;;;;;5128720;27;20031;-60
2023/08/01 09:22:12;;;;;;;2.87;0.70;;;;;;;;;;5131838;27;20007;-60
2023/08/01 09:24:37;;;;;;;2.50;0.70;;;;;;;;;;5123049;27;20452;-59
2023/08/01 09:27:08;;;;;;;3.07;0.80;;;;;;;;;;5122140;27;20516;-60
2023/08/01 09:29:33;;;;;;;1.85;0.57;;;;;;;;;;5122051;27;20574;-60
2023/08/01 09:31:58;;;;;;;3.00;0.80;;;;;;;;;;5118202;27;20102;-60
2023/08/01 09:34:24;;;;;;;2.70;0.63;;;;;;;;;;5125791;27;20017;-60
2023/08/01 09:36:49;;;;;;;;;;;;;;;;;;5132146;27;20103;-61
2023/08/01 09:39:16;;;;;;;2.30;0.70;;;;;;;;;;5114036;27;20002;-60
2023/08/01 09:41:41;;;;;;;3.60;0.77;;;;;;;;;;5121676;27;20384;-61
2023/08/01 09:44:10;;;;;;;2.33;0.70;;;;;;;;;;5130719;27;20430;-59
2023/08/01 09:46:35;;;;;;;2.47;0.70;;;;;;;;;;5132279;27;20482;-60
2023/08/01 09:49:07;;;;;;;1.40;0.50;;;;;;;;;;5132432;28;20027;-61
2023/08/01 09:51:32;;;;;;;2.83;0.70;;;;;;;;;;5120530;27;20538;-59
2023/08/01 09:53:57;;;;;;;1.58;0.65;;;;;;;;;;5130894;27;20098;-60
2023/08/01 09:56:23;;;;;;;1.48;0.60;;;;;;;;;;5131701;28;20038;-60
2023/08/01 09:58:49;;;;;;;1.88;0.50;;;;;;;;;;5130458;28;20036;-60
2023/08/01 10:01:15;;;;;;;1.70;0.65;;;;;;;;;;5131771;27;20494;-60
2023/08/01 10:03:43;;;;;;;1.65;0.60;;;;;;;;;;5137591;27;20027;-59
2023/08/01 10:06:10;;;;;;;2.80;0.77;;;;;;;;;;5130484;27;20027;-59
2023/08/01 10:08:35;;;;;;;1.30;0.45;;;;;;;;;;5129946;27;20649;-60
2023/08/01 10:11:03;;;;;;;2.55;0.50;;;;;;;;;;5152418;27;20023;-61
2023/08/01 10:13:28;;;;;;;1.55;0.50;;;;;;;;;;5152128;27;20015;-60
2023/08/01 10:15:54;;;;;;;1.83;0.40;;;;;;;;;;5145506;27;20034;-61
2023/08/01 10:18:19;;;;;;;2.23;0.60;;;;;;;;;;5147759;27;20067;-60
2023/08/01 10:20:46;;;;;;;1.13;0.43;;;;;;;;;;5140058;27;20119;-60
2023/08/01 10:23:12;;;;;;;1.27;0.50;;;;;;;;;;5130728;27;20087;-59
2023/08/01 10:25:38;;;;;;;2.33;0.57;;;;;;;;;;5131618;27;20525;-59
2023/08/01 10:28:05;;;;;;;1.75;0.52;;;;;;;;;;5138730;27;20019;-61
2023/08/01 10:30:30;;;;;;;1.27;0.60;;;;;;;;;;5148644;27;20022;-61
2023/08/01 10:32:56;;;;;;;1.63;0.50;;;;;;;;;;5151460;27;20014;-61
2023/08/01 10:35:42;;;;;;;1.50;0.60;;;;;;;;;;5123683;27;20022;-61
2023/08/01 10:38:08;;;;;;;2.83;0.75;;;;;;;;;;5124085;27;20059;-60
2023/08/01 10:40:33;;;;;;;;;;;;;;;;;;5131791;27;20019;-61
2023/08/01 10:42:58;;;;;;;2.33;0.70;;;;;;;;;;5130804;27;19926;-60
2023/08/01 10:45:24;;;;;;;1.70;0.60;;;;;;;;;;5131446;28;20011;-60
2023/08/01 10:47:49;;;;;;;2.23;0.50;;;;;;;;;;5133320;27;20670;-61
2023/08/01 10:50:15;;;;;;;1.67;0.57;;;;;;;;;;5134356;27;20023;-61
2023/08/01 10:52:41;;;;;;;1.15;0.50;;;;;;;;;;5132942;27;20026;-61
2023/08/01 10:55:06;;;;;;;0.77;0.47;;;;;;;;;;5134476;27;20394;-59
2023/08/01 10:57:35;;;;;;;1.25;0.40;;;;;;;;;;5133203;27;20042;-61
2023/08/01 11:00:01;;;;;;;1.98;0.65;;;;;;;;;;5134704;27;20036;-62
2023/08/01 11:02:27;;;;;;;1.17;0.45;;;;;;;;;;5134179;27;20416;-58
2023/08/01 11:04:59;;;;;;;2.13;0.60;;;;;;;;;;5132897;27;20032;-59
2023/08/01 11:07:24;;;;;;;1.48;0.60;;;;;;;;;;5134608;27;20106;-60
2023/08/01 11:10:00;;;;;;;2.60;0.60;;;;;;;;;;5123487;27;20108;-60
2023/08/01 11:12:27;;;;;;;1.90;0.70;;;;;;;;;;5114100;28;20046;-61
2023/08/01 11:14:52;;;;;;;1.20;0.50;;;;;;;;;;5117138;27;20102;-60
2023/08/01 11:17:17;;;;;;;1.67;0.53;;;;;;;;;;5137687;27;20023;-61
2023/08/01 11:19:42;;;;;;;;;;;;;;;;;;5142296;27;20220;-59
2023/08/01 11:22:09;;;;;;;1.63;0.50;;;;;;;;;;5134096;27;20462;-59
2023/08/01 11:24:34;;;;;;;2.55;0.60;;;;;;;;;;5133657;27;20394;-60
2023/08/01 11:26:59;;;;;;;1.65;0.52;;;;;;;;;;5134485;27;20015;-61
2023/08/01 11:29:24;;;;;;;;;;;;;;;;;;5134833;27;20099;-61
2023/08/01 11:31:52;;;;;;;2.47;0.52;;;;;;;;;;5122681;27;19907;-61
2023/08/01 11:34:17;;;;;;;2.17;0.63;;;;;;;;;;5123902;27;20027;-61
2023/08/01 11:36:45;;;;;;;0.97;0.40;;;;;;;;;;5123760;27;20027;-61
2023/08/01 11:39:10;;;;;;;1.90;0.50;;;;;;;;;;5127734;27;20542;-61
2023/08/01 11:41:36;;;;;;;2.23;0.50;;;;;;;;;;5125073;27;20140;-61
2023/08/01 11:44:02;;;;;;;2.50;0.60;;;;;;;;;;5133587;27;20068;-60
2023/08/01 11:46:31;;;;;;;1.83;0.63;;;;;;;;;;5122867;27;20028;-61
2023/08/01 11:48:56;;;;;;;3.75;1.02;;;;;;;;;;5124186;27;20034;-61
2023/08/01 11:51:21;;;;;;;4.85;0.93;;;;;;;;;;5133666;27;20023;-61
2023/08/01 11:53:48;;;;;;;2.00;0.67;;;;;;;;;;5134752;27;20470;-61
2023/08/01 11:56:20;;;;;;;2.63;0.80;;;;;;;;;;5138207;27;20025;-60
2023/08/01 11:58:45;;;;;;;4.18;0.80;;;;;;;;;;5156147;27;20076;-61
2023/08/01 12:01:11;;;;;;;4.07;1.05;;;;;;;;;;5136564;27;20023;-59
2023/08/01 12:03:43;;;;;;;2.40;0.80;;;;;;;;;;5134802;27;20475;-59
2023/08/01 12:06:09;;;;;;;3.08;0.90;;;;;;;;;;5130700;27;20047;-60
2023/08/01 12:08:34;;;;;;;2.90;0.90;;;;;;;;;;5145850;27;20098;-61
2023/08/01 12:10:59;;;;;;;2.50;0.80;;;;;;;;;;5154573;27;20110;-59
2023/08/01 12:13:25;;;;;;;2.63;0.90;;;;;;;;;;5153459;27;20108;-60
2023/08/01 12:15:51;;;;;;;2.40;0.80;;;;;;;;;;5130648;27;20026;-60
2023/08/01 12:18:26;;;;;;;2.53;0.75;;;;;;;;;;5129674;27;20032;-60
2023/08/01 12:20:51;;;;;;;2.22;0.75;;;;;;;;;;5132554;27;20034;-60
2023/08/01 12:23:17;;;;;;;3.90;0.80;;;;;;;;;;5132323;27;20019;-60
2023/08/01 12:25:42;;;;;;;3.90;0.80;;;;;;;;;;5114546;27;20024;-61
2023/08/01 12:28:07;;;;;;;2.63;0.80;;;;;;;;;;5132217;27;20012;-60
2023/08/01 12:30:32;;;;;;;4.00;0.70;;;;;;;;;;5119742;27;20526;-60
2023/08/01 12:32:57;;;;;;;3.20;0.80;;;;;;;;;;5119443;27;20100;-60
2023/08/01 12:35:23;;;;;;;3.00;0.70;;;;;;;;;;5121860;27;20073;-60
2023/08/01 12:37:48;;;;;;;3.13;0.80;;;;;;;;;;5127694;27;20084;-60
2023/08/01 12:40:14;;;;;;;4.37;1.20;;;;;;;;;;5129455;27;20019;-60
2023/08/01 12:42:39;;;;;;;3.40;0.67;;;;;;;;;;5124891;27;20019;-60
2023/08/01 12:45:04;;;;;;;2.63;0.63;;;;;;;;;;5125490;27;20031;-59
2023/08/01 12:47:30;;;;;;;6.43;0.85;;;;;;;;;;5117234;27;20068;-60
2023/08/01 12:49:55;;;;;;;5.50;1.20;;;;;;;;;;5115133;27;20499;-59
2023/08/01 12:52:26;;;;;;;4.70;1.05;;;;;;;;;;5122262;27;20011;-58
2023/08/01 12:54:52;;;;;;;3.15;0.82;;;;;;;;;;5115720;27;20019;-59
2023/08/01 12:57:17;;;;;;;2.77;0.80;;;;;;;;;;5118064;27;20068;-61
2023/08/01 12:59:42;;;;;;;3.67;0.97;;;;;;;;;;5112189;27;20023;-59
2023/08/01 13:02:08;;;;;;;2.58;0.70;;;;;;;;;;5116217;27;20055;-59
2023/08/01 13:04:33;;;;;;;2.40;0.70;;;;;;;;;;5116180;27;20036;-60
2023/08/01 13:06:58;;;;;;;3.30;0.93;;;;;;;;;;5123390;27;20019;-58
2023/08/01 13:09:24;;;;;;;2.60;0.77;;;;;;;;;;5118268;27;20015;-60
2023/08/01 13:11:49;;;;;;;3.23;0.90;;;;;;;;;;5128186;27;20474;-59
2023/08/01 13:14:14;;;;;;;3.05;1.10;;;;;;;;;;5134713;27;20011;-59
2023/08/01 13:16:39;;;;;;;3.05;0.98;;;;;;;;;;5136894;27;20053;-61
2023/08/01 13:19:05;;;;;;;2.88;1.10;;;;;;;;;;5124044;27;20073;-59
2023/08/01 13:21:30;;;;;;;3.30;1.20;;;;;;;;;;5118665;27;20598;-59
2023/08/01 13:23:55;;;;;;;3.57;0.90;;;;;;;;;;5114319;27;20436;-59
2023/08/01 13:26:21;;;;;;;3.72;1.20;;;;;;;;;;5122415;27;21001;-60
2023/08/01 13:28:46;;;;;;;3.17;1.23;;;;;;;;;;5112170;27;20867;-61
2023/08/01 13:31:11;;;;;;;4.18;1.02;;;;;;;;;;5116143;27;20023;-60
2023/08/01 13:33:36;;;;;;;3.60;1.07;;;;;;;;;;5118349;27;20509;-60
2023/08/01 13:36:01;;;;;;;3.13;1.00;;;;;;;;;;5113573;27;20038;-59
2023/08/01 13:38:26;;;;;;;3.83;1.10;;;;;;;;;;5132056;27;20027;-59
2023/08/01 13:40:51;;;;;;;3.00;1.00;;;;;;;;;;5121178;27;20019;-59
2023/08/01 13:43:17;;;;;;;3.93;1.00;;;;;;;;;;5109563;27;20428;-60
2023/08/01 13:45:42;;;;;;;4.77;1.20;;;;;;;;;;5111194;27;20026;-61
2023/08/01 13:48:07;;;;;;;2.75;1.00;;;;;;;;;;5116284;27;20098;-60
2023/08/01 13:50:32;;;;;;;3.60;1.10;;;;;;;;;;5119200;27;20088;-58
2023/08/01 13:52:58;;;;;;;3.27;1.13;;;;;;;;;;5128704;28;20449;-61
2023/08/01 13:55:23;;;;;;;3.47;1.30;;;;;;;;;;5127009;27;20029;-58
2023/08/01 13:57:48;;;;;;;2.70;1.20;;;;;;;;;;5124219;27;20035;-60
2023/08/01 14:00:13;;;;;;;6.13;1.40;;;;;;;;;;5116567;27;20015;-61
2023/08/01 14:02:38;;;;;;;4.77;1.23;;;;;;;;;;5124878;27;20023;-60
2023/08/01 14:05:04;;;;;;;3.47;1.53;;;;;;;;;;5117583;27;21003;-60
2023/08/01 14:07:29;;;;;;;4.90;1.88;;;;;;;;;;5126983;28;20071;-60
2023/08/01 14:09:54;;;;;;;3.58;1.63;;;;;;;;;;5120935;27;20027;-61
2023/08/01 14:12:19;;;;;;;5.00;1.77;;;;;;;;;;5128164;27;20027;-59
2023/08/01 14:14:44;;;;;;;5.22;1.92;;;;;;;;;;5124289;27;20045;-58
2023/08/01 14:17:09;;;;;;;4.40;2.03;;;;;;;;;;5131579;27;20023;-59
2023/08/01 14:19:35;;;;;;;3.70;1.80;;;;;;;;;;5129631;27;20383;-59
2023/08/01 14:22:00;;;;;;;4.13;1.73;;;;;;;;;;5123841;28;20453;-61
2023/08/01 14:24:25;;;;;;;4.03;2.00;;;;;;;;;;5128290;27;20068;-60
2023/08/01 14:26:51;;;;;;;4.10;1.73;;;;;;;;;;5135010;27;20070;-60
2023/08/01 14:29:18;;;;;;;5.68;1.88;;;;;;;;;;5133350;27;20034;-61
2023/08/01 14:31:43;;;;;;;4.63;2.00;;;;;;;;;;5136970;27;20031;-60
2023/08/01 14:34:08;;;;;;;4.43;1.80;;;;;;;;;;5137088;27;20041;-60
2023/08/01 14:36:34;;;;;;;3.93;1.77;;;;;;;;;;5124077;27;20068;-59